createdAt,value
2019-02-21T00:00:24.459Z,1.16
2019-02-21T00:01:21.933Z,1.18
2019-02-21T00:02:21.801Z,1.15
2019-02-21T00:03:21.668Z,1.16
2019-02-21T00:04:21.537Z,1.08
2019-02-21T00:05:21.402Z,1.04
2019-02-21T00:06:21.270Z,1.10
2019-02-21T00:07:21.136Z,1.04
2019-02-21T00:08:21.006Z,1.03
2019-02-21T00:09:20.875Z,0.97
2019-02-21T00:10:20.738Z,1.01
2019-02-21T00:11:20.605Z,1.00
2019-02-21T00:12:20.472Z,0.98
2019-02-21T00:13:20.340Z,1.03
2019-02-21T00:14:20.207Z,1.04
2019-02-21T00:15:20.071Z,1.01
2019-02-21T00:16:19.942Z,1.06
2019-02-21T00:17:19.807Z,0.97
2019-02-21T00:18:19.673Z,0.96
2019-02-21T00:19:19.560Z,0.98
2019-02-21T00:20:19.412Z,0.98
2019-02-21T00:21:19.302Z,0.88
2019-02-21T00:22:19.145Z,1.07
2019-02-21T00:23:19.008Z,1.10
2019-02-21T00:24:18.878Z,1.08
2019-02-21T00:25:18.744Z,1.19
2019-02-21T00:26:18.609Z,1.14
2019-02-21T00:27:18.476Z,1.15
2019-02-21T00:28:18.346Z,1.21
2019-02-21T00:29:18.215Z,1.10
2019-02-21T00:30:18.081Z,1.10
2019-02-21T00:31:17.946Z,1.12
2019-02-21T00:32:17.813Z,1.10
2019-02-21T00:33:17.681Z,1.01
2019-02-21T00:34:17.547Z,1.12
2019-02-21T00:35:17.413Z,0.96
2019-02-21T00:36:17.281Z,1.03
2019-02-21T00:37:17.147Z,1.18
2019-02-21T00:38:17.015Z,1.34
2019-02-21T00:39:16.883Z,1.39
2019-02-21T00:40:16.748Z,1.40
2019-02-21T00:41:16.614Z,1.26
2019-02-21T00:42:16.484Z,1.21
2019-02-21T00:43:16.349Z,1.22
2019-02-21T00:44:16.217Z,1.03
2019-02-21T00:45:16.084Z,1.15
2019-02-21T00:46:15.949Z,1.10
2019-02-21T00:47:15.818Z,1.12
2019-02-21T00:48:15.682Z,1.18
2019-02-21T00:49:15.554Z,1.08
2019-02-21T00:50:15.416Z,1.04
2019-02-21T00:51:15.283Z,1.06
2019-02-21T00:52:15.153Z,1.03
2019-02-21T00:53:15.017Z,0.97
2019-02-21T00:54:14.887Z,0.96
2019-02-21T00:55:14.753Z,0.94
2019-02-21T00:56:14.618Z,1.00
2019-02-21T00:57:14.491Z,0.97
2019-02-21T00:58:14.354Z,1.00
2019-02-21T00:59:14.220Z,0.94
2019-02-21T01:00:14.089Z,0.86
2019-02-21T01:01:14.030Z,0.97
2019-02-21T01:02:13.821Z,0.89
2019-02-21T01:03:13.687Z,1.08
2019-02-21T01:04:13.572Z,1.26
2019-02-21T01:05:13.421Z,1.36
2019-02-21T01:06:13.290Z,1.42
2019-02-21T01:07:13.157Z,1.34
2019-02-21T01:08:13.024Z,1.19
2019-02-21T01:09:12.892Z,1.24
2019-02-21T01:10:12.759Z,1.19
2019-02-21T01:11:12.624Z,1.12
2019-02-21T01:12:12.494Z,1.12
2019-02-21T01:13:12.364Z,1.14
2019-02-21T01:14:12.229Z,1.12
2019-02-21T01:15:12.095Z,1.00
2019-02-21T01:16:11.964Z,0.89
2019-02-21T01:17:11.839Z,0.78
2019-02-21T01:18:11.694Z,0.78
2019-02-21T01:19:11.570Z,0.83
2019-02-21T01:20:11.459Z,0.83
2019-02-21T01:21:11.293Z,0.76
2019-02-21T01:22:11.160Z,0.85
2019-02-21T01:23:11.029Z,0.75
2019-02-21T01:24:10.903Z,0.85
2019-02-21T01:25:10.761Z,0.85
2019-02-21T01:26:10.629Z,0.85
2019-02-21T01:27:10.495Z,0.85
2019-02-21T01:28:10.361Z,0.82
2019-02-21T01:29:10.227Z,0.85
2019-02-21T01:30:10.100Z,0.78
2019-02-21T01:31:09.962Z,0.79
2019-02-21T01:32:09.833Z,0.79
2019-02-21T01:33:09.697Z,0.70
2019-02-21T01:34:09.566Z,0.78
2019-02-21T01:35:09.431Z,0.78
2019-02-21T01:36:09.298Z,0.71
2019-02-21T01:37:09.166Z,0.79
2019-02-21T01:38:09.031Z,0.78
2019-02-21T01:39:08.902Z,0.88
2019-02-21T01:40:08.766Z,0.83
2019-02-21T01:41:08.630Z,0.82
2019-02-21T01:42:08.504Z,0.86
2019-02-21T01:43:08.367Z,0.86
2019-02-21T01:44:08.234Z,0.92
2019-02-21T01:45:08.097Z,1.07
2019-02-21T01:46:07.966Z,1.06
2019-02-21T01:47:07.832Z,0.96
2019-02-21T01:48:07.700Z,0.98
2019-02-21T01:49:07.568Z,0.96
2019-02-21T01:50:07.434Z,0.94
2019-02-21T01:51:07.346Z,0.97
2019-02-21T01:52:07.172Z,0.90
2019-02-21T01:53:07.039Z,0.86
2019-02-21T01:54:06.900Z,0.85
2019-02-21T01:55:06.774Z,0.86
2019-02-21T01:56:06.633Z,0.83
2019-02-21T01:57:06.501Z,0.82
2019-02-21T01:58:06.373Z,0.78
2019-02-21T01:59:06.236Z,0.75
2019-02-21T02:00:06.101Z,0.70
2019-02-21T02:01:08.799Z,0.76
2019-02-21T02:02:05.836Z,0.76
2019-02-21T02:03:05.702Z,0.67
2019-02-21T02:04:05.574Z,0.68
2019-02-21T02:05:05.441Z,0.58
2019-02-21T02:06:05.307Z,0.58
2019-02-21T02:07:05.175Z,0.72
2019-02-21T02:08:05.039Z,0.61
2019-02-21T02:09:04.906Z,0.64
2019-02-21T02:10:04.929Z,0.60
2019-02-21T02:11:04.638Z,0.78
2019-02-21T02:12:04.514Z,0.80
2019-02-21T02:13:04.372Z,0.83
2019-02-21T02:14:04.240Z,0.90
2019-02-21T02:15:04.107Z,0.94
2019-02-21T02:16:03.976Z,0.88
2019-02-21T02:17:03.839Z,0.82
2019-02-21T02:18:03.707Z,0.83
2019-02-21T02:19:03.572Z,0.85
2019-02-21T02:20:03.453Z,0.83
2019-02-21T02:21:03.314Z,0.70
2019-02-21T02:22:03.177Z,0.76
2019-02-21T02:23:03.043Z,0.72
2019-02-21T02:24:02.910Z,0.79
2019-02-21T02:25:02.774Z,0.75
2019-02-21T02:26:02.640Z,0.75
2019-02-21T02:27:02.508Z,0.62
2019-02-21T02:28:02.377Z,0.65
2019-02-21T02:29:02.395Z,0.76
2019-02-21T02:30:02.112Z,0.60
2019-02-21T02:31:01.973Z,0.75
2019-02-21T02:32:01.843Z,0.67
2019-02-21T02:33:01.709Z,0.70
2019-02-21T02:34:01.577Z,0.72
2019-02-21T02:35:01.443Z,0.64
2019-02-21T02:36:01.310Z,0.64
2019-02-21T02:37:01.173Z,0.67
2019-02-21T02:38:01.040Z,0.57
2019-02-21T02:39:00.905Z,0.61
2019-02-21T02:40:00.774Z,0.51
2019-02-21T02:41:00.646Z,0.75
2019-02-21T02:42:00.509Z,0.83
2019-02-21T02:43:00.372Z,0.70
2019-02-21T02:44:00.241Z,0.68
2019-02-21T02:45:00.474Z,0.64
2019-02-21T02:45:59.976Z,0.76
2019-02-21T02:46:59.850Z,0.52
2019-02-21T02:47:59.708Z,0.72
2019-02-21T02:48:59.577Z,0.61
2019-02-21T02:49:59.441Z,0.52
2019-02-21T02:50:59.315Z,0.51
2019-02-21T02:51:59.175Z,0.52
2019-02-21T02:52:59.052Z,0.58
2019-02-21T02:53:58.907Z,0.49
2019-02-21T02:54:58.773Z,0.64
2019-02-21T02:55:58.640Z,0.60
2019-02-21T02:56:58.506Z,0.68
2019-02-21T02:57:58.372Z,0.58
2019-02-21T02:58:58.241Z,0.65
2019-02-21T02:59:58.107Z,0.62
2019-02-21T03:00:57.974Z,0.52
2019-02-21T03:01:57.840Z,0.60
2019-02-21T03:02:57.707Z,0.61
2019-02-21T03:03:57.576Z,0.61
2019-02-21T03:04:57.442Z,0.65
2019-02-21T03:05:57.307Z,0.61
2019-02-21T03:06:57.176Z,0.70
2019-02-21T03:07:57.042Z,0.68
2019-02-21T03:08:56.911Z,0.62
2019-02-21T03:09:56.821Z,0.52
2019-02-21T03:10:56.640Z,0.57
2019-02-21T03:11:56.508Z,0.48
2019-02-21T03:12:56.377Z,0.39
2019-02-21T03:13:56.241Z,0.45
2019-02-21T03:14:56.104Z,0.48
2019-02-21T03:15:55.974Z,0.52
2019-02-21T03:16:55.840Z,0.49
2019-02-21T03:17:55.704Z,0.51
2019-02-21T03:18:55.574Z,0.64
2019-02-21T03:19:55.441Z,0.72
2019-02-21T03:20:55.315Z,0.89
2019-02-21T03:21:55.173Z,0.92
2019-02-21T03:22:55.039Z,0.89
2019-02-21T03:23:54.903Z,0.97
2019-02-21T03:24:54.769Z,1.08
2019-02-21T03:25:54.649Z,0.98
2019-02-21T03:26:54.514Z,0.89
2019-02-21T03:27:54.369Z,0.86
2019-02-21T03:28:54.237Z,0.86
2019-02-21T03:29:54.101Z,0.86
2019-02-21T03:30:53.976Z,0.78
2019-02-21T03:31:55.881Z,0.75
2019-02-21T03:32:53.718Z,0.60
2019-02-21T03:33:53.582Z,0.61
2019-02-21T03:34:53.435Z,0.65
2019-02-21T03:35:53.306Z,0.53
2019-02-21T03:36:53.169Z,0.49
2019-02-21T03:37:53.038Z,0.62
2019-02-21T03:38:52.905Z,0.51
2019-02-21T03:39:52.772Z,0.53
2019-02-21T03:40:52.635Z,0.52
2019-02-21T03:41:52.501Z,0.48
2019-02-21T03:42:52.381Z,0.43
2019-02-21T03:43:52.237Z,0.39
2019-02-21T03:44:52.104Z,0.31
2019-02-21T03:45:51.970Z,0.41
2019-02-21T03:46:51.837Z,0.52
2019-02-21T03:47:51.702Z,0.57
2019-02-21T03:48:51.597Z,0.51
2019-02-21T03:49:51.433Z,0.53
2019-02-21T03:50:51.302Z,0.48
2019-02-21T03:51:51.173Z,0.53
2019-02-21T03:52:51.034Z,0.45
2019-02-21T03:53:50.969Z,0.46
2019-02-21T03:54:50.768Z,0.43
2019-02-21T03:55:50.635Z,0.48
2019-02-21T03:56:50.502Z,0.46
2019-02-21T03:57:50.366Z,0.57
2019-02-21T03:58:50.235Z,0.51
2019-02-21T03:59:50.100Z,0.53
2019-02-21T04:00:49.966Z,0.57
2019-02-21T04:01:49.835Z,0.60
2019-02-21T04:02:49.701Z,0.46
2019-02-21T04:03:49.568Z,0.51
2019-02-21T04:04:49.434Z,0.52
2019-02-21T04:05:49.300Z,0.53
2019-02-21T04:06:49.166Z,0.60
2019-02-21T04:07:49.034Z,0.58
2019-02-21T04:08:48.901Z,0.49
2019-02-21T04:09:48.769Z,0.72
2019-02-21T04:10:48.634Z,0.83
2019-02-21T04:11:48.504Z,0.82
2019-02-21T04:12:48.368Z,0.86
2019-02-21T04:13:48.233Z,0.80
2019-02-21T04:14:48.101Z,0.78
2019-02-21T04:15:47.968Z,0.78
2019-02-21T04:16:47.831Z,0.62
2019-02-21T04:17:47.702Z,0.65
2019-02-21T04:18:47.566Z,0.64
2019-02-21T04:19:47.432Z,0.62
2019-02-21T04:20:47.300Z,0.57
2019-02-21T04:21:47.165Z,1.19
2019-02-21T04:22:47.029Z,1.40
2019-02-21T04:23:46.896Z,1.39
2019-02-21T04:24:46.764Z,1.28
2019-02-21T04:25:46.631Z,1.19
2019-02-21T04:26:46.498Z,1.33
2019-02-21T04:27:46.363Z,1.46
2019-02-21T04:28:46.233Z,1.50
2019-02-21T04:29:46.096Z,1.34
2019-02-21T04:30:45.963Z,1.06
2019-02-21T04:31:45.829Z,0.83
2019-02-21T04:32:45.700Z,0.71
2019-02-21T04:33:45.563Z,0.71
2019-02-21T04:34:45.431Z,0.57
2019-02-21T04:35:45.299Z,0.78
2019-02-21T04:36:45.162Z,0.75
2019-02-21T04:37:45.030Z,0.60
2019-02-21T04:38:44.900Z,0.57
2019-02-21T04:39:44.762Z,0.51
2019-02-21T04:40:44.641Z,0.58
2019-02-21T04:41:44.496Z,0.57
2019-02-21T04:42:44.411Z,0.58
2019-02-21T04:43:44.230Z,0.53
2019-02-21T04:44:44.096Z,0.49
2019-02-21T04:45:43.963Z,0.53
2019-02-21T04:46:43.832Z,0.57
2019-02-21T04:47:43.696Z,0.60
2019-02-21T04:48:43.563Z,0.58
2019-02-21T04:49:43.429Z,0.53
2019-02-21T04:50:43.294Z,0.52
2019-02-21T04:51:43.164Z,0.58
2019-02-21T04:52:43.112Z,0.53
2019-02-21T04:53:42.893Z,0.51
2019-02-21T04:54:42.763Z,0.57
2019-02-21T04:55:42.628Z,0.49
2019-02-21T04:56:42.494Z,0.48
2019-02-21T04:57:42.364Z,0.51
2019-02-21T04:58:42.225Z,0.49
2019-02-21T04:59:42.096Z,0.48
2019-02-21T05:00:41.961Z,0.49
2019-02-21T05:01:41.828Z,0.46
2019-02-21T05:02:41.694Z,0.46
2019-02-21T05:03:41.561Z,0.48
2019-02-21T05:04:41.426Z,0.53
2019-02-21T05:05:41.292Z,0.45
2019-02-21T05:06:41.157Z,0.48
2019-02-21T05:07:41.052Z,0.52
2019-02-21T05:08:41.019Z,0.53
2019-02-21T05:09:40.820Z,0.52
2019-02-21T05:10:40.656Z,0.52
2019-02-21T05:11:40.498Z,0.53
2019-02-21T05:12:40.359Z,0.57
2019-02-21T05:13:40.225Z,0.60
2019-02-21T05:14:40.728Z,0.52
2019-02-21T05:15:42.123Z,0.51
2019-02-21T05:16:39.836Z,0.48
2019-02-21T05:17:39.819Z,0.51
2019-02-21T05:18:39.630Z,0.58
2019-02-21T05:19:39.424Z,0.46
2019-02-21T05:20:39.294Z,0.52
2019-02-21T05:21:39.159Z,0.51
2019-02-21T05:22:39.046Z,0.46
2019-02-21T05:23:38.901Z,0.39
2019-02-21T05:24:38.758Z,0.33
2019-02-21T05:25:38.624Z,0.38
2019-02-21T05:26:38.490Z,0.41
2019-02-21T05:27:39.994Z,0.39
2019-02-21T05:28:41.077Z,0.39
2019-02-21T05:29:38.091Z,0.34
2019-02-21T05:30:37.968Z,0.39
2019-02-21T05:31:37.822Z,0.39
2019-02-21T05:32:40.913Z,0.41
2019-02-21T05:33:37.560Z,0.41
2019-02-21T05:34:37.425Z,0.38
2019-02-21T05:35:37.292Z,0.33
2019-02-21T05:36:37.161Z,0.41
2019-02-21T05:37:37.021Z,0.38
2019-02-21T05:38:36.893Z,0.38
2019-02-21T05:39:36.851Z,0.38
2019-02-21T05:40:36.630Z,0.30
2019-02-21T05:41:36.490Z,0.34
2019-02-21T05:42:36.355Z,0.31
2019-02-21T05:43:37.245Z,0.38
2019-02-21T05:44:36.218Z,0.41
2019-02-21T05:45:35.960Z,0.38
2019-02-21T05:46:35.825Z,0.39
2019-02-21T05:47:35.689Z,0.41
2019-02-21T05:48:35.556Z,0.45
2019-02-21T05:49:35.507Z,0.38
2019-02-21T05:50:35.292Z,0.43
2019-02-21T05:51:35.155Z,0.42
2019-02-21T05:52:35.020Z,0.41
2019-02-21T05:53:34.929Z,0.41
2019-02-21T05:54:34.755Z,0.38
2019-02-21T05:55:34.621Z,0.42
2019-02-21T05:56:34.491Z,0.39
2019-02-21T05:57:34.356Z,0.43
2019-02-21T05:58:34.245Z,0.36
2019-02-21T05:59:34.102Z,0.36
2019-02-21T06:00:36.745Z,0.38
2019-02-21T06:01:33.831Z,0.31
2019-02-21T06:02:33.687Z,0.48
2019-02-21T06:03:35.889Z,0.43
2019-02-21T06:04:33.420Z,0.31
2019-02-21T06:05:33.285Z,0.34
2019-02-21T06:06:33.153Z,0.48
2019-02-21T06:07:33.019Z,0.48
2019-02-21T06:08:32.884Z,0.57
2019-02-21T06:09:32.752Z,0.52
2019-02-21T06:10:32.616Z,0.52
2019-02-21T06:11:34.947Z,0.57
2019-02-21T06:12:33.982Z,0.43
2019-02-21T06:13:32.215Z,0.51
2019-02-21T06:14:32.082Z,0.60
2019-02-21T06:15:31.951Z,0.53
2019-02-21T06:16:32.923Z,0.60
2019-02-21T06:17:34.025Z,0.53
2019-02-21T06:18:31.546Z,0.52
2019-02-21T06:19:31.412Z,0.53
2019-02-21T06:20:33.658Z,0.48
2019-02-21T06:21:31.142Z,0.41
2019-02-21T06:22:31.010Z,0.43
2019-02-21T06:23:30.880Z,0.38
2019-02-21T06:24:30.744Z,0.39
2019-02-21T06:25:31.438Z,0.38
2019-02-21T06:26:30.477Z,0.38
2019-02-21T06:27:30.342Z,0.41
2019-02-21T06:28:30.219Z,0.34
2019-02-21T06:29:30.077Z,0.41
2019-02-21T06:30:29.943Z,0.42
2019-02-21T06:31:29.810Z,0.43
2019-02-21T06:32:29.674Z,0.45
2019-02-21T06:33:29.543Z,0.42
2019-02-21T06:34:31.683Z,0.43
2019-02-21T06:35:29.274Z,0.49
2019-02-21T06:36:29.142Z,0.48
2019-02-21T06:37:29.018Z,0.51
2019-02-21T06:38:28.877Z,0.57
2019-02-21T06:39:28.740Z,0.58
2019-02-21T06:40:28.608Z,0.57
2019-02-21T06:41:29.932Z,0.58
2019-02-21T06:42:28.338Z,0.58
2019-02-21T06:43:28.213Z,0.51
2019-02-21T06:44:28.074Z,0.60
2019-02-21T06:45:27.944Z,0.51
2019-02-21T06:46:27.805Z,0.53
2019-02-21T06:47:27.674Z,0.62
2019-02-21T06:48:27.563Z,0.79
2019-02-21T06:49:32.482Z,0.94
2019-02-21T06:50:27.406Z,0.85
2019-02-21T06:51:27.139Z,0.89
2019-02-21T06:52:27.003Z,0.76
2019-02-21T06:53:26.868Z,0.67
2019-02-21T06:54:26.739Z,0.62
2019-02-21T06:55:26.605Z,0.80
2019-02-21T06:56:26.468Z,0.76
2019-02-21T06:57:26.337Z,0.64
2019-02-21T06:58:26.229Z,0.72
2019-02-21T06:59:26.071Z,0.62
2019-02-21T07:00:25.934Z,0.64
2019-02-21T07:01:29.424Z,0.58
2019-02-21T07:02:28.010Z,0.72
2019-02-21T07:03:25.535Z,0.65
2019-02-21T07:04:25.400Z,0.62
2019-02-21T07:05:25.269Z,0.65
2019-02-21T07:06:32.058Z,0.67
2019-02-21T07:07:25.001Z,0.58
2019-02-21T07:08:25.246Z,0.52
2019-02-21T07:09:24.732Z,0.53
2019-02-21T07:10:24.599Z,0.61
2019-02-21T07:11:25.375Z,0.64
2019-02-21T07:12:24.338Z,0.61
2019-02-21T07:13:26.839Z,0.68
2019-02-21T07:14:24.070Z,0.60
2019-02-21T07:15:23.938Z,0.62
2019-02-21T07:16:23.803Z,0.64
2019-02-21T07:17:23.668Z,0.60
2019-02-21T07:18:23.538Z,0.57
2019-02-21T07:19:23.405Z,0.57
2019-02-21T07:20:23.271Z,0.61
2019-02-21T07:21:23.160Z,0.68
2019-02-21T07:22:23.003Z,0.80
2019-02-21T07:23:22.870Z,0.78
2019-02-21T07:24:22.740Z,0.75
2019-02-21T07:25:22.603Z,0.85
2019-02-21T07:26:22.469Z,0.80
2019-02-21T07:27:22.340Z,0.85
2019-02-21T07:28:22.204Z,0.71
2019-02-21T07:29:22.071Z,0.80
2019-02-21T07:30:23.232Z,0.79
2019-02-21T07:31:28.744Z,0.85
2019-02-21T07:32:21.674Z,0.83
2019-02-21T07:33:28.529Z,0.92
2019-02-21T07:34:21.411Z,1.06
2019-02-21T07:35:21.294Z,1.18
2019-02-21T07:36:21.169Z,1.15
2019-02-21T07:37:21.054Z,1.15
2019-02-21T07:38:20.874Z,1.16
2019-02-21T07:39:21.000Z,1.14
2019-02-21T07:40:20.616Z,1.16
2019-02-21T07:41:20.474Z,1.18
2019-02-21T07:42:20.339Z,1.24
2019-02-21T07:43:20.744Z,1.25
2019-02-21T07:44:20.077Z,1.37
2019-02-21T07:45:19.949Z,1.37
2019-02-21T07:46:19.810Z,1.29
2019-02-21T07:47:19.676Z,1.34
2019-02-21T07:48:19.541Z,1.29
2019-02-21T07:49:19.414Z,1.25
2019-02-21T07:50:19.303Z,1.40
2019-02-21T07:51:19.145Z,1.44
2019-02-21T07:52:19.010Z,1.40
2019-02-21T07:53:18.877Z,1.51
2019-02-21T07:54:18.750Z,1.50
2019-02-21T07:55:18.613Z,1.54
2019-02-21T07:56:18.532Z,1.69
2019-02-21T07:57:18.345Z,1.73
2019-02-21T07:58:18.214Z,1.97
2019-02-21T07:59:18.084Z,2.09
2019-02-21T08:00:17.948Z,2.27
2019-02-21T08:01:17.816Z,2.31
2019-02-21T08:02:17.686Z,2.48
2019-02-21T08:03:29.459Z,2.69
2019-02-21T08:04:17.418Z,2.73
2019-02-21T08:05:17.287Z,2.89
2019-02-21T08:06:19.663Z,2.98
2019-02-21T08:07:17.025Z,3.12
2019-02-21T08:08:16.891Z,3.42
2019-02-21T08:09:18.893Z,3.52
2019-02-21T08:10:16.629Z,3.88
2019-02-21T08:11:16.499Z,3.98
2019-02-21T08:12:16.367Z,4.12
2019-02-21T08:13:16.233Z,4.43
2019-02-21T08:14:16.336Z,4.58
2019-02-21T08:15:15.973Z,4.67
2019-02-21T08:16:15.843Z,4.96
2019-02-21T08:17:16.369Z,5.14
2019-02-21T08:18:15.587Z,5.34
2019-02-21T08:19:15.453Z,5.64
2019-02-21T08:20:15.322Z,5.95
2019-02-21T08:21:15.194Z,6.04
2019-02-21T08:22:15.062Z,6.29
2019-02-21T08:23:14.933Z,6.43
2019-02-21T08:24:14.802Z,6.51
2019-02-21T08:25:14.675Z,6.35
2019-02-21T08:26:14.545Z,6.11
2019-02-21T08:27:14.419Z,6.11
2019-02-21T08:28:14.314Z,5.89
2019-02-21T08:29:14.163Z,5.83
2019-02-21T08:30:14.029Z,5.98
2019-02-21T08:31:13.901Z,6.11
2019-02-21T08:32:13.839Z,6.35
2019-02-21T08:33:13.644Z,6.50
2019-02-21T08:34:13.518Z,6.61
2019-02-21T08:35:13.388Z,6.80
2019-02-21T08:36:13.257Z,6.84
2019-02-21T08:37:13.181Z,6.76
2019-02-21T08:38:13.006Z,6.86
2019-02-21T08:39:12.873Z,6.90
2019-02-21T08:40:12.748Z,7.02
2019-02-21T08:41:14.453Z,7.08
2019-02-21T08:42:12.491Z,6.98
2019-02-21T08:43:12.362Z,6.89
2019-02-21T08:44:12.237Z,6.76
2019-02-21T08:45:12.115Z,7.01
2019-02-21T08:46:11.977Z,7.13
2019-02-21T08:47:11.853Z,7.37
2019-02-21T08:48:13.462Z,7.67
2019-02-21T08:49:11.601Z,7.53
2019-02-21T08:50:11.469Z,7.67
2019-02-21T08:51:11.343Z,7.31
2019-02-21T08:52:11.214Z,7.22
2019-02-21T08:53:12.953Z,7.27
2019-02-21T08:54:11.544Z,7.32
2019-02-21T08:55:10.833Z,7.62
2019-02-21T08:56:10.720Z,7.74
2019-02-21T08:57:10.577Z,7.79
2019-02-21T08:58:10.452Z,7.87
2019-02-21T08:59:10.331Z,7.84
2019-02-21T09:00:10.942Z,8.02
2019-02-21T09:01:10.071Z,8.14
2019-02-21T09:02:09.940Z,8.17
2019-02-21T09:03:09.817Z,8.36
2019-02-21T09:04:18.307Z,8.53
2019-02-21T09:05:09.597Z,8.51
2019-02-21T09:06:09.436Z,8.20
2019-02-21T09:07:09.357Z,8.03
2019-02-21T09:08:09.190Z,7.93
2019-02-21T09:09:09.055Z,7.99
2019-02-21T09:10:08.942Z,8.00
2019-02-21T09:11:08.806Z,7.99
2019-02-21T09:12:08.675Z,7.99
2019-02-21T09:13:08.548Z,8.07
2019-02-21T09:14:08.422Z,8.22
2019-02-21T09:15:08.296Z,8.40
2019-02-21T09:16:08.173Z,8.65
2019-02-21T09:17:08.043Z,8.68
2019-02-21T09:18:07.918Z,8.60
2019-02-21T09:19:07.815Z,8.60
2019-02-21T09:20:07.673Z,8.63
2019-02-21T09:21:07.574Z,8.75
2019-02-21T09:22:07.413Z,8.93
2019-02-21T09:23:07.286Z,9.02
2019-02-21T09:24:07.158Z,9.16
2019-02-21T09:25:07.033Z,9.06
2019-02-21T09:26:06.908Z,9.12
2019-02-21T09:27:06.783Z,9.27
2019-02-21T09:28:06.653Z,9.45
2019-02-21T09:29:06.528Z,9.24
2019-02-21T09:30:06.421Z,9.30
2019-02-21T09:31:06.278Z,9.15
2019-02-21T09:32:06.978Z,9.30
2019-02-21T09:33:16.649Z,9.13
2019-02-21T09:34:05.902Z,9.32
2019-02-21T09:35:05.775Z,8.97
2019-02-21T09:36:05.648Z,8.99
2019-02-21T09:37:05.635Z,9.16
2019-02-21T09:38:05.402Z,8.96
2019-02-21T09:39:05.271Z,8.71
2019-02-21T09:40:05.145Z,8.86
2019-02-21T09:41:05.023Z,9.16
2019-02-21T09:42:04.894Z,8.93
2019-02-21T09:43:04.770Z,8.99
2019-02-21T09:44:04.641Z,8.76
2019-02-21T09:45:04.516Z,8.50
2019-02-21T09:46:04.392Z,8.76
2019-02-21T09:47:04.266Z,9.12
2019-02-21T09:48:04.140Z,9.31
2019-02-21T09:49:04.082Z,9.52
2019-02-21T09:50:03.888Z,9.49
2019-02-21T09:51:03.761Z,9.73
2019-02-21T09:52:03.641Z,9.79
2019-02-21T09:53:03.509Z,9.66
2019-02-21T09:54:03.382Z,9.60
2019-02-21T09:55:03.260Z,9.70
2019-02-21T09:56:03.132Z,9.76
2019-02-21T09:57:12.767Z,9.70
2019-02-21T09:58:02.885Z,9.91
2019-02-21T09:59:02.756Z,9.85
2019-02-21T10:00:02.630Z,9.71
2019-02-21T10:01:02.505Z,9.75
2019-02-21T10:02:02.383Z,9.91
2019-02-21T10:03:02.257Z,10.17
2019-02-21T10:04:02.132Z,9.94
2019-02-21T10:05:05.085Z,9.79
2019-02-21T10:06:01.883Z,9.52
2019-02-21T10:07:01.755Z,9.46
2019-02-21T10:08:01.630Z,9.58
2019-02-21T10:09:01.503Z,9.43
2019-02-21T10:10:01.385Z,9.43
2019-02-21T10:11:01.259Z,9.63
2019-02-21T10:12:01.128Z,9.91
2019-02-21T10:13:01.004Z,10.09
2019-02-21T10:14:00.890Z,10.56
2019-02-21T10:15:00.798Z,10.84
2019-02-21T10:16:00.627Z,10.96
2019-02-21T10:17:00.501Z,10.81
2019-02-21T10:18:00.378Z,10.52
2019-02-21T10:19:00.260Z,10.52
2019-02-21T10:20:00.127Z,10.26
2019-02-21T10:21:00.003Z,10.18
2019-02-21T10:21:59.876Z,10.06
2019-02-21T10:22:59.751Z,10.01
2019-02-21T10:23:59.631Z,10.15
2019-02-21T10:24:59.501Z,10.09
2019-02-21T10:25:59.379Z,10.34
2019-02-21T10:26:59.255Z,10.66
2019-02-21T10:27:59.328Z,10.91
2019-02-21T10:28:59.005Z,10.86
2019-02-21T10:29:58.879Z,11.07
2019-02-21T10:30:58.754Z,11.31
2019-02-21T10:31:58.745Z,11.56
2019-02-21T10:32:58.504Z,11.83
2019-02-21T10:33:58.382Z,11.57
2019-02-21T10:34:58.259Z,11.20
2019-02-21T10:36:00.448Z,11.24
2019-02-21T10:36:58.010Z,11.19
2019-02-21T10:37:57.884Z,11.28
2019-02-21T10:38:57.763Z,11.25
2019-02-21T10:39:57.645Z,11.19
2019-02-21T10:40:57.516Z,11.21
2019-02-21T10:41:57.390Z,11.16
2019-02-21T10:42:57.267Z,11.31
2019-02-21T10:43:57.141Z,11.27
2019-02-21T10:44:57.025Z,10.78
2019-02-21T10:45:56.896Z,10.32
2019-02-21T10:46:56.777Z,10.26
2019-02-21T10:47:56.652Z,10.39
2019-02-21T10:48:56.523Z,10.83
2019-02-21T10:49:56.401Z,11.02
2019-02-21T10:50:56.282Z,11.11
2019-02-21T10:51:56.150Z,10.89
2019-02-21T10:52:56.025Z,10.83
2019-02-21T10:53:55.905Z,10.91
2019-02-21T10:54:55.778Z,11.24
2019-02-21T10:55:55.658Z,11.47
2019-02-21T10:56:55.531Z,11.57
2019-02-21T10:57:55.405Z,11.72
2019-02-21T10:58:55.289Z,11.44
2019-02-21T10:59:55.160Z,11.25
2019-02-21T11:00:55.044Z,11.09
2019-02-21T11:01:54.912Z,10.94
2019-02-21T11:02:54.793Z,10.99
2019-02-21T11:03:54.662Z,11.02
2019-02-21T11:04:55.247Z,11.03
2019-02-21T11:05:54.415Z,11.17
2019-02-21T11:06:54.294Z,11.24
2019-02-21T11:07:54.175Z,11.57
2019-02-21T11:08:54.042Z,11.94
2019-02-21T11:09:54.004Z,11.82
2019-02-21T11:10:53.798Z,11.70
2019-02-21T11:11:53.682Z,11.57
2019-02-21T11:12:53.552Z,11.71
2019-02-21T11:13:53.427Z,11.93
2019-02-21T11:14:53.303Z,11.96
2019-02-21T11:15:53.179Z,11.82
2019-02-21T11:16:53.063Z,12.02
2019-02-21T11:17:52.933Z,11.78
2019-02-21T11:18:52.808Z,11.53
2019-02-21T11:19:52.683Z,11.24
2019-02-21T11:20:52.562Z,11.27
2019-02-21T11:21:52.436Z,11.14
2019-02-21T11:22:52.315Z,11.54
2019-02-21T11:23:52.192Z,11.80
2019-02-21T11:24:52.066Z,11.74
2019-02-21T11:25:51.945Z,12.13
2019-02-21T11:26:51.824Z,12.49
2019-02-21T11:27:51.696Z,12.56
2019-02-21T11:28:51.571Z,12.31
2019-02-21T11:29:51.449Z,11.85
2019-02-21T11:30:51.324Z,11.97
2019-02-21T11:31:51.205Z,12.26
2019-02-21T11:32:51.082Z,12.23
2019-02-21T11:33:50.952Z,12.20
2019-02-21T11:34:50.833Z,12.33
2019-02-21T11:35:50.708Z,12.26
2019-02-21T11:36:50.584Z,12.38
2019-02-21T11:37:50.461Z,12.66
2019-02-21T11:38:50.336Z,12.62
2019-02-21T11:39:50.215Z,12.56
2019-02-21T11:40:50.092Z,12.45
2019-02-21T11:41:49.970Z,12.63
2019-02-21T11:42:49.846Z,12.21
2019-02-21T11:43:49.722Z,12.20
2019-02-21T11:44:49.599Z,12.01
2019-02-21T11:45:53.852Z,11.96
2019-02-21T11:46:49.353Z,11.46
2019-02-21T11:47:49.230Z,11.44
2019-02-21T11:48:49.110Z,11.74
2019-02-21T11:49:48.984Z,11.86
2019-02-21T11:50:48.859Z,11.89
2019-02-21T11:51:48.735Z,11.86
2019-02-21T11:52:48.611Z,11.65
2019-02-21T11:53:48.489Z,11.74
2019-02-21T11:54:48.365Z,11.86
2019-02-21T11:55:48.244Z,11.96
2019-02-21T11:56:48.119Z,12.06
2019-02-21T11:57:47.999Z,12.27
2019-02-21T11:58:47.873Z,12.59
2019-02-21T11:59:47.752Z,12.88
2019-02-21T12:00:47.626Z,12.87
2019-02-21T12:01:47.503Z,12.85
2019-02-21T12:02:47.378Z,12.89
2019-02-21T12:03:47.257Z,12.82
2019-02-21T12:04:47.139Z,12.45
2019-02-21T12:05:47.008Z,11.99
2019-02-21T12:06:47.742Z,11.82
2019-02-21T12:07:46.764Z,12.02
2019-02-21T12:08:46.640Z,12.24
2019-02-21T12:09:46.517Z,12.33
2019-02-21T12:10:46.395Z,12.29
2019-02-21T12:11:46.268Z,12.05
2019-02-21T12:12:46.151Z,12.12
2019-02-21T12:13:46.024Z,12.21
2019-02-21T12:14:45.901Z,12.38
2019-02-21T12:15:45.778Z,12.34
2019-02-21T12:16:45.654Z,12.62
2019-02-21T12:17:45.531Z,12.29
2019-02-21T12:18:45.411Z,12.51
2019-02-21T12:19:45.284Z,12.69
2019-02-21T12:20:45.159Z,12.96
2019-02-21T12:21:45.042Z,13.00
2019-02-21T12:22:44.916Z,12.66
2019-02-21T12:23:44.794Z,12.59
2019-02-21T12:24:44.668Z,12.45
2019-02-21T12:25:44.547Z,12.39
2019-02-21T12:26:44.426Z,12.57
2019-02-21T12:27:44.301Z,12.69
2019-02-21T12:28:44.178Z,12.66
2019-02-21T12:29:44.054Z,12.51
2019-02-21T12:30:43.933Z,12.23
2019-02-21T12:31:43.809Z,12.27
2019-02-21T12:32:43.692Z,12.23
2019-02-21T12:33:43.569Z,12.08
2019-02-21T12:34:43.442Z,11.96
2019-02-21T12:35:43.315Z,11.87
2019-02-21T12:36:43.195Z,12.05
2019-02-21T12:37:43.072Z,12.39
2019-02-21T12:38:42.946Z,12.66
2019-02-21T12:39:42.823Z,12.81
2019-02-21T12:40:42.700Z,12.69
2019-02-21T12:41:42.582Z,12.75
2019-02-21T12:42:42.461Z,12.63
2019-02-21T12:43:42.328Z,12.64
2019-02-21T12:44:42.209Z,12.70
2019-02-21T12:45:42.084Z,12.85
2019-02-21T12:46:41.962Z,12.88
2019-02-21T12:47:49.692Z,13.29
2019-02-21T12:48:41.712Z,13.46
2019-02-21T12:49:41.593Z,13.07
2019-02-21T12:50:44.310Z,13.38
2019-02-21T12:51:41.375Z,13.18
2019-02-21T12:52:41.228Z,13.32
2019-02-21T12:53:41.098Z,13.44
2019-02-21T12:54:40.977Z,13.18
2019-02-21T12:55:40.853Z,12.71
2019-02-21T12:56:40.727Z,12.38
2019-02-21T12:57:40.603Z,12.06
2019-02-21T12:58:40.483Z,11.87
2019-02-21T12:59:40.358Z,12.08
2019-02-21T13:00:40.236Z,12.39
2019-02-21T13:01:40.109Z,12.42
2019-02-21T13:02:39.986Z,12.67
2019-02-21T13:03:39.863Z,12.85
2019-02-21T13:04:39.741Z,12.67
2019-02-21T13:05:41.310Z,12.75
2019-02-21T13:06:39.492Z,13.00
2019-02-21T13:07:39.370Z,13.22
2019-02-21T13:08:39.245Z,13.27
2019-02-21T13:09:39.123Z,13.76
2019-02-21T13:10:39.003Z,13.84